| Date | Time | Temp. (oF) | Dew Point (oF) | Rel. Hum. (%) | Press. (in.) | Wind Dir. | Wind Speed (mph) | Hourly Rainfall (in.) |
|
|---|---|---|---|---|---|---|---|---|---|
| 1 | 06/06 | 00:00 | 67 | 64 | 91 | 30.11 | SSE | 4 | 0.00 |
| 2 | 06/05 | 23:00 | 70 | 66 | 90 | 30.10 | ESE | 2 | 0.00 |
| 3 | 06/05 | 22:00 | 72 | 68 | 88 | 30.08 | SW | 2 | 0.00 |
| 4 | 06/05 | 21:00 | 75 | 68 | 81 | 30.04 | SE | 5 | 0.00 |
| 5 | 06/05 | 20:00 | 77 | 69 | 77 | 30.03 | S | 4 | 0.00 |
| 6 | 06/05 | 19:00 | 79 | 69 | 73 | 29.99 | S | 5 | 0.00 |
| 7 | 06/05 | 18:00 | 82 | 70 | 68 | 29.96 | S | 5 | 0.00 |
| 8 | 06/05 | 17:00 | 84 | 71 | 66 | 29.96 | SSW | 0 | 0.00 |
| 9 | 06/05 | 16:00 | 83 | 69 | 65 | 30.01 | ESE | 0 | 0.00 |
| 10 | 06/05 | 15:00 | 82 | 69 | 66 | 30.01 | SSW | 0 | 0.00 |
| 11 | 06/05 | 14:00 | 79 | 68 | 70 | 30.02 | S | 4 | 0.00 |
| 12 | 06/05 | 13:00 | 79 | 69 | 74 | 30.01 | SSW | 3 | 0.00 |
| 13 | 06/05 | 12:00 | 75 | 67 | 77 | 30.01 | SW | 3 | 0.00 |
| 14 | 06/05 | 11:00 | 73 | 66 | 79 | 30.00 | S | 3 | 0.00 |
| 15 | 06/05 | 10:00 | 73 | 66 | 80 | 29.98 | E | 7 | 0.00 |
| 16 | miss | miss | miss | miss | miss | miss | miss | miss | |
| 17 | 06/05 | 09:45 | 0 | -52 | 6 | 0.00 | E SE | 1 | 5.99 |
| 18 | miss | miss | miss | miss | miss | miss | miss | miss | |
| 19 | 06/05 | 09:43 | 74 | 66 | 78 | 29.99 | NE | 2 | 0.00 |
| 20 | miss | miss | miss | miss | miss | miss | miss | miss | |
| 21 | 06/05 | 09:41 | 74 | 66 | 78 | 30.00 | NNE | 1 | 0.00 |
| 22 | miss | miss | miss | miss | miss | miss | miss | miss | |
| 23 | 06/05 | 09:39 | 74 | 67 | 79 | 30.00 | NNE | 2 | 0.00 |
| 24 | miss | miss | miss | miss | miss | miss | miss | miss | |
| 25 | 06/05 | 09:37 | 73 | 66 | 79 | 30.00 | N | 2 | 0.00 |
| 26 | miss | miss | miss | miss | miss | miss | miss | miss | |
| 27 | 06/05 | 09:37 | 73 | 66 | 79 | 30.00 | N | 2 | 0.00 |
| 28 | miss | miss | miss | miss | miss | miss | miss | miss | |
| 29 | 06/05 | 09:37 | 73 | 66 | 79 | 30.00 | N | 2 | 0.00 |
| 30 | miss | miss | miss | miss | miss | miss | miss | miss | |
| 31 | 06/05 | 09:37 | 73 | 66 | 79 | 30.00 | N | 2 | 0.00 |
| 32 | miss | miss | miss | miss | miss | miss | miss | miss | |
| 33 | 06/05 | 09:37 | 73 | 66 | 79 | 30.00 | N | 2 | 0.00 |
| 34 | miss | miss | miss | miss | miss | miss | miss | miss | |
| 35 | 06/05 | 09:37 | 73 | 66 | 79 | 30.00 | N | 2 | 0.00 |
| 36 | miss | miss | miss | miss | miss | miss | miss | miss | |
| 37 | 06/05 | 09:37 | 73 | 66 | 79 | 30.00 | N | 2 | 0.00 |
| 38 | miss | miss | miss | miss | miss | miss | miss | miss | |
| 39 | 06/05 | 09:37 | 73 | 66 | 79 | 30.00 | N | 2 | 0.00 |
| 40 | 06/05 | 09:00 | 72 | 65 | 81 | 30.01 | SE | 1 | 0.00 |
| 41 | 06/05 | 08:00 | 67 | 65 | 95 | 29.99 | ENE | 6 | 0.00 |
| 42 | 06/05 | 07:00 | 65 | 64 | 100 | 29.97 | N | 3 | 0.00 |
| 43 | 06/05 | 06:00 | 64 | 63 | 100 | 29.94 | N | 6 | 0.00 |
| 44 | 06/05 | 05:00 | 64 | 63 | 100 | 29.87 | N | 5 | 0.00 |
| 45 | 06/05 | 04:00 | 65 | 64 | 100 | 29.85 | N | 5 | 0.00 |
| 46 | 06/05 | 03:00 | 68 | 68 | 100 | 29.81 | NW | 6 | 0.00 |
| 47 | 06/05 | 02:00 | 68 | 68 | 100 | 29.79 | SW | 2 | 0.00 |
| 48 | 06/05 | 01:00 | 68 | 68 | 100 | 29.79 | SW | 4 | 0.01 |
| 49 | 06/05 | 00:00 | 68 | 68 | 100 | 29.80 | SW | 3 | -0.01 |
| 50 | 06/04 | 23:00 | 68 | 67 | 99 | 29.78 | S | 5 | 0.02 |
| 51 | 06/04 | 22:00 | 69 | 68 | 99 | 29.80 | SSW | 4 | 0.00 |
| 52 | 06/04 | 21:00 | 71 | 70 | 99 | 29.76 | S | 4 | 0.00 |
| 53 | 06/04 | 20:00 | 73 | 71 | 95 | 29.74 | NNW | 0 | 0.00 |
| 54 | 06/04 | 19:00 | 73 | 71 | 96 | 29.74 | SW | 3 | 0.00 |
| 55 | 06/04 | 18:00 | 74 | 73 | 97 | 29.73 | NW | 2 | 0.01 |
| 56 | 06/04 | 17:00 | 73 | 72 | 97 | 29.70 | E | 4 | 0.02 |
| 57 | 06/04 | 16:00 | 74 | 71 | 92 | 29.73 | S | 0 | 0.19 |
| 58 | 06/04 | 15:00 | 80 | 70 | 74 | 29.73 | SSW | 3 | 0.00 |
| 59 | 06/04 | 14:00 | 79 | 71 | 79 | 29.73 | N | 4 | 0.00 |
| 60 | 06/04 | 13:00 | 77 | 71 | 82 | 29.75 | NNE | 4 | 0.00 |
| 61 | 06/04 | 12:00 | 76 | 69 | 80 | 29.78 | WSW | 3 | 0.00 |
| 62 | 06/04 | 11:00 | 74 | 70 | 88 | 29.76 | NNW | 0 | 0.00 |
| 63 | 06/04 | 10:00 | 73 | 69 | 90 | 29.75 | WSW | 2 | 0.00 |
| 64 | 06/04 | 09:00 | 72 | 71 | 97 | 29.74 | SSW | 2 | 0.00 |
| 65 | 06/04 | 08:00 | 68 | 68 | 100 | 29.76 | SW | 2 | 0.00 |
| 66 | 06/04 | 07:00 | 67 | 67 | 100 | 29.74 | SSW | 2 | 0.01 |
| 67 | 06/04 | 06:00 | 66 | 66 | 100 | 29.73 | S | 0 | 0.01 |
| 68 | 06/04 | 05:00 | 66 | 66 | 100 | 29.72 | S | 0 | 0.00 |
| 69 | 06/04 | 04:00 | 66 | 66 | 100 | 29.73 | SSE | 0 | 0.00 |
| 70 | 06/04 | 03:00 | 65 | 64 | 100 | 29.74 | S | 2 | 0.00 |
| 71 | 06/04 | 02:00 | 65 | 64 | 100 | 29.77 | SSE | 3 | 0.00 |
| 72 | 06/04 | 01:00 | 65 | 64 | 100 | 29.77 | S | 2 | 0.03 |
| 73 | 06/04 | 00:00 | 65 | 64 | 99 | 29.78 | S | 6 | -0.29 |